Time;durP1;ratioP1;P1;durP2;ratioP2;P2;SDS_P1;SDS_P2;PMS_P1;PMS_P2;Temp;Humidity;BMP_temperature;BMP_pressure;BME280_temperature;BME280_humidity;BME280_pressure;Samples;Min_cycle;Max_cycle;Signal;HPM_P1;HPM_P2
2022/10/16 00:03:46;;;;;;;26.03;17.37;;;10.30;99.90;;;;;;8413988;28;20255;-72
2022/10/16 00:07:47;;;;;;;28.23;18.87;;;10.20;99.90;;;;;;8413634;28;20187;-72
2022/10/16 00:11:48;;;;;;;27.37;17.93;;;10.00;99.90;;;;;;8413255;28;20392;-72
2022/10/16 00:15:48;;;;;;;31.87;20.27;;;9.90;99.90;;;;;;8414141;28;20209;-71
2022/10/16 00:19:49;;;;;;;27.40;18.77;;;9.90;99.90;;;;;;8411888;28;20213;-72
2022/10/16 00:23:52;;;;;;;27.80;18.30;;;10.00;99.90;;;;;;8412929;28;20202;-72
2022/10/16 00:27:53;;;;;;;24.87;15.80;;;10.00;99.90;;;;;;8392703;28;20631;-71
2022/10/16 00:31:54;;;;;;;23.97;15.47;;;10.10;99.90;;;;;;8394580;28;20376;-72
2022/10/16 00:35:58;;;;;;;21.40;14.83;;;10.00;99.90;;;;;;8398008;28;20202;-72
2022/10/16 00:39:59;;;;;;;22.63;15.20;;;10.00;99.90;;;;;;8396244;28;20215;-71
2022/10/16 00:44:03;;;;;;;18.23;13.10;;;10.00;99.90;;;;;;8410354;28;20284;-71
2022/10/16 00:48:10;;;;;;;15.83;10.73;;;10.10;99.90;;;;;;8409147;28;20188;-72
2022/10/16 00:52:11;;;;;;;14.77;10.60;;;10.40;99.90;;;;;;8392899;28;20201;-72
2022/10/16 00:56:12;;;;;;;12.33;8.97;;;10.70;99.90;;;;;;8411624;28;20239;-73
2022/10/16 01:00:19;;;;;;;9.77;8.43;;;11.00;99.90;;;;;;8410194;28;20217;-72
2022/10/16 01:04:21;;;;;;;9.33;7.73;;;11.30;99.90;;;;;;8395491;28;20249;-72
2022/10/16 01:08:31;;;;;;;8.77;7.87;;;11.60;99.90;;;;;;8409724;28;20184;-72
2022/10/16 01:12:43;;;;;;;8.20;7.20;;;11.80;99.90;;;;;;8412992;28;20211;-73
2022/10/16 01:16:54;;;;;;;8.53;6.40;;;12.00;99.90;;;;;;8393157;28;20607;-72
2022/10/16 01:21:08;;;;;;;7.73;6.47;;;12.20;99.90;;;;;;8410665;28;20188;-72
2022/10/16 01:25:17;;;;;;;5.70;5.10;;;12.40;99.90;;;;;;8410379;28;20184;-73
2022/10/16 01:29:26;;;;;;;11.30;7.53;;;12.50;99.90;;;;;;8399729;28;20189;-72
2022/10/16 01:33:42;;;;;;;9.03;7.87;;;12.50;99.90;;;;;;8402616;28;20223;-73
2022/10/16 01:37:55;;;;;;;18.40;13.90;;;12.50;99.90;;;;;;8418254;28;20219;-73
2022/10/16 01:42:05;;;;;;;26.43;16.33;;;12.40;99.90;;;;;;8395933;28;20181;-72
2022/10/16 01:46:08;;;;;;;33.40;21.17;;;12.20;99.90;;;;;;8401974;28;20203;-73
2022/10/16 01:50:09;;;;;;;24.00;14.67;;;12.00;99.90;;;;;;8417749;28;20193;-72
2022/10/16 01:54:13;;;;;;;18.17;11.80;;;11.90;99.90;;;;;;8400164;28;20208;-71
2022/10/16 01:58:15;;;;;;;14.77;10.83;;;11.70;99.90;;;;;;8415989;28;20487;-71
2022/10/16 02:02:18;;;;;;;20.27;11.30;;;11.70;99.90;;;;;;8417269;28;20226;-72
2022/10/16 02:06:19;;;;;;;16.63;11.20;;;11.60;99.90;;;;;;8399675;28;20196;-72
2022/10/16 02:10:20;;;;;;;16.90;11.17;;;11.50;99.90;;;;;;8415536;28;20185;-72
2022/10/16 02:14:24;;;;;;;15.37;11.67;;;11.30;99.90;;;;;;8417294;28;20288;-71
2022/10/16 02:18:29;;;;;;;15.17;10.77;;;11.10;99.90;;;;;;8412766;28;20208;-72
2022/10/16 02:22:49;;;;;;;15.03;10.97;;;10.90;99.90;;;;;;8396184;28;20188;-74
2022/10/16 02:27:04;;;;;;;12.40;9.83;;;10.80;99.90;;;;;;8412550;28;20405;-72
2022/10/16 02:31:09;;;;;;;15.17;11.23;;;10.60;99.90;;;;;;8416263;28;20289;-72
2022/10/16 02:35:11;;;;;;;15.40;10.67;;;10.60;99.90;;;;;;8416642;28;20273;-71
2022/10/16 02:39:13;;;;;;;20.57;13.27;;;10.40;99.90;;;;;;8396329;28;20213;-73
2022/10/16 02:43:14;;;;;;;25.07;15.97;;;10.40;99.90;;;;;;8415497;28;20245;-71
2022/10/16 02:47:15;;;;;;;26.20;15.47;;;10.30;99.90;;;;;;8415876;28;20201;-72
2022/10/16 02:51:16;;;;;;;23.17;15.90;;;10.30;99.90;;;;;;8415227;28;20195;-71
2022/10/16 02:55:16;;;;;;;20.80;13.80;;;10.20;99.90;;;;;;8415827;28;20272;-71
2022/10/16 02:59:17;;;;;;;17.30;12.80;;;10.10;99.90;;;;;;8396762;28;20213;-71
2022/10/16 03:03:18;;;;;;;19.27;13.53;;;10.10;99.90;;;;;;8414565;28;20234;-72
2022/10/16 03:07:19;;;;;;;17.90;11.93;;;10.10;99.90;;;;;;8400222;28;20622;-73
2022/10/16 03:11:20;;;;;;;18.00;11.77;;;10.10;99.90;;;;;;8416304;28;20196;-70
2022/10/16 03:15:20;;;;;;;13.60;10.87;;;10.10;99.90;;;;;;8415290;28;20469;-72
2022/10/16 03:19:22;;;;;;;9.00;7.80;;;10.10;99.90;;;;;;8399257;28;20253;-72
2022/10/16 03:23:23;;;;;;;9.70;7.60;;;10.40;99.90;;;;;;8398173;28;20186;-72
2022/10/16 03:27:23;;;;;;;8.40;7.53;;;10.80;99.90;;;;;;8411732;28;20202;-72
2022/10/16 03:31:24;;;;;;;7.30;6.30;;;11.10;99.90;;;;;;8397209;28;20270;-71
2022/10/16 03:35:25;;;;;;;7.73;7.00;;;11.40;99.90;;;;;;8399711;28;20207;-72
2022/10/16 03:39:26;;;;;;;7.00;6.13;;;11.80;99.90;;;;;;8395900;28;20287;-70
2022/10/16 03:43:27;;;;;;;7.07;6.40;;;12.10;99.90;;;;;;8396032;28;20189;-72
2022/10/16 03:47:28;;;;;;;7.67;5.83;;;12.40;99.90;;;;;;8413439;28;20269;-72
2022/10/16 03:51:29;;;;;;;6.63;5.93;;;12.50;99.90;;;;;;8391383;28;20549;-71
2022/10/16 03:55:30;;;;;;;7.40;6.50;;;12.60;99.90;;;;;;8414129;28;20209;-71
2022/10/16 03:59:30;;;;;;;6.90;6.20;;;12.80;99.90;;;;;;8410165;28;20204;-72
2022/10/16 04:03:31;;;;;;;7.03;5.93;;;12.90;99.90;;;;;;8413405;28;20252;-72
2022/10/16 04:07:32;;;;;;;6.10;5.50;;;13.00;99.90;;;;;;8392334;28;20190;-72
2022/10/16 04:11:33;;;;;;;6.60;6.00;;;13.00;99.90;;;;;;8414095;28;20232;-73
2022/10/16 04:15:33;;;;;;;8.40;6.77;;;13.00;99.90;;;;;;8398731;28;20301;-73
2022/10/16 04:19:34;;;;;;;6.40;5.80;;;13.00;99.90;;;;;;8414803;28;20172;-73
2022/10/16 04:23:35;;;;;;;5.97;5.47;;;13.00;99.90;;;;;;8398318;28;20181;-71
2022/10/16 04:27:36;;;;;;;6.10;5.60;;;13.00;99.90;;;;;;8393411;28;20450;-72
2022/10/16 04:31:36;;;;;;;6.47;5.77;;;13.00;99.90;;;;;;8397877;28;20195;-72
2022/10/16 04:35:37;;;;;;;5.87;5.27;;;13.10;99.90;;;;;;8398035;28;20211;-71
2022/10/16 04:39:38;;;;;;;6.43;5.73;;;13.10;99.90;;;;;;8393177;28;20189;-71
2022/10/16 04:43:39;;;;;;;7.13;6.20;;;13.10;99.90;;;;;;8398368;28;20196;-72
2022/10/16 04:47:39;;;;;;;6.30;5.73;;;13.20;99.90;;;;;;8411590;28;20192;-72
2022/10/16 04:51:40;;;;;;;6.27;5.60;;;13.30;99.90;;;;;;8412969;28;20195;-72
2022/10/16 04:55:41;;;;;;;6.67;6.07;;;13.30;99.90;;;;;;8409126;28;20642;-71
2022/10/16 04:59:42;;;;;;;6.87;6.27;;;13.40;99.90;;;;;;8409216;28;20250;-73
2022/10/16 05:03:43;;;;;;;7.00;6.40;;;13.60;99.90;;;;;;8400698;28;20196;-72
2022/10/16 05:07:44;;;;;;;6.70;6.10;;;13.70;99.90;;;;;;8420191;28;20187;-71
2022/10/16 05:11:44;;;;;;;9.53;6.10;;;13.80;99.90;;;;;;8401190;28;20184;-72
2022/10/16 05:15:48;;;;;;;7.43;6.73;;;13.80;99.90;;;;;;8400528;28;20207;-71
2022/10/16 05:19:49;;;;;;;6.97;6.37;;;13.90;99.90;;;;;;8417463;28;20204;-71
2022/10/16 05:23:50;;;;;;;8.13;5.37;;;14.00;99.90;;;;;;8401084;28;20195;-73
2022/10/16 05:27:51;;;;;;;6.23;5.63;;;14.10;99.90;;;;;;8398315;28;20341;-71
2022/10/16 05:31:52;;;;;;;5.87;5.37;;;14.10;99.90;;;;;;8398119;28;20585;-71
2022/10/16 05:35:53;;;;;;;6.23;5.60;;;14.10;99.90;;;;;;8417783;28;20196;-70
2022/10/16 05:39:54;;;;;;;4.67;4.27;;;14.10;99.90;;;;;;8399772;28;20214;-70
2022/10/16 05:43:54;;;;;;;5.43;4.93;;;14.10;99.90;;;;;;8416755;28;20195;-70
2022/10/16 05:47:55;;;;;;;5.13;4.60;;;14.20;99.90;;;;;;8398806;28;20181;-73
2022/10/16 05:51:56;;;;;;;6.30;4.90;;;14.30;99.90;;;;;;8399172;28;20193;-72
2022/10/16 05:55:57;;;;;;;4.87;4.23;;;14.40;99.90;;;;;;8398321;28;20238;-71
2022/10/16 05:59:58;;;;;;;5.63;4.00;;;14.50;99.90;;;;;;8396829;28;20205;-72
2022/10/16 06:03:59;;;;;;;4.33;3.83;;;14.60;99.90;;;;;;8415274;28;20200;-70
2022/10/16 06:07:59;;;;;;;3.77;3.43;;;14.70;99.90;;;;;;8393167;28;20199;-69
2022/10/16 06:12:00;;;;;;;4.50;3.57;;;14.70;99.90;;;;;;8415618;28;20265;-72
2022/10/16 06:16:02;;;;;;;4.87;3.57;;;14.70;99.90;;;;;;8400135;28;20507;-71
2022/10/16 06:20:03;;;;;;;3.70;3.40;;;14.60;99.90;;;;;;8397642;28;20216;-71
2022/10/16 06:24:04;;;;;;;3.30;3.00;;;14.50;99.90;;;;;;8414989;28;20191;-70
2022/10/16 06:28:05;;;;;;;3.30;3.00;;;14.50;99.90;;;;;;8411771;28;20197;-70
2022/10/16 06:32:05;;;;;;;4.03;3.60;;;14.50;99.90;;;;;;8393813;28;20276;-72
2022/10/16 06:36:15;;;;;;;3.93;3.53;;;14.50;99.90;;;;;;8411930;28;20207;-72
2022/10/16 06:40:16;;;;;;;4.03;3.23;;;14.60;99.90;;;;;;8414864;28;20259;-71
2022/10/16 06:44:16;;;;;;;4.30;3.40;;;14.70;99.90;;;;;;8393814;28;20239;-70
2022/10/16 06:48:17;;;;;;;3.40;3.10;;;14.90;99.90;;;;;;8396063;28;20189;-72
2022/10/16 06:52:18;;;;;;;4.00;3.60;;;15.10;99.90;;;;;;8413092;28;20719;-70
2022/10/16 06:56:25;;;;;;;4.53;4.13;;;15.30;99.90;;;;;;8394294;28;20332;-71
2022/10/16 07:00:26;;;;;;;3.87;3.57;;;15.50;99.90;;;;;;8396474;28;20234;-71
2022/10/16 07:04:26;;;;;;;3.77;3.47;;;15.70;99.90;;;;;;8395916;28;20180;-71
2022/10/16 07:08:27;;;;;;;3.80;3.50;;;15.90;99.90;;;;;;8412037;28;20196;-70
2022/10/16 07:12:28;;;;;;;4.87;4.40;;;16.00;99.90;;;;;;8412831;28;20323;-70
2022/10/16 07:16:31;;;;;;;4.03;3.70;;;16.10;99.90;;;;;;8395744;28;20216;-71
2022/10/16 07:20:32;;;;;;;4.40;4.00;;;16.40;99.90;;;;;;8395249;28;20189;-71
2022/10/16 07:24:33;;;;;;;3.20;2.90;;;16.70;99.90;;;;;;8393988;28;20188;-71
2022/10/16 07:28:34;;;;;;;3.40;3.10;;;16.90;99.90;;;;;;8410731;28;20185;-70
2022/10/16 07:32:35;;;;;;;3.80;3.43;;;17.00;99.90;;;;;;8394220;28;20197;-70
2022/10/16 07:36:36;;;;;;;3.53;3.23;;;17.10;99.90;;;;;;8391851;28;20204;-69
2022/10/16 07:40:37;;;;;;;4.60;2.87;;;17.20;99.90;;;;;;8393157;28;20208;-71
2022/10/16 07:44:38;;;;;;;3.57;3.27;;;17.40;99.90;;;;;;8409383;28;20180;-72
2022/10/16 07:48:38;;;;;;;3.20;2.90;;;17.50;99.90;;;;;;8396509;28;20196;-71
2022/10/16 07:52:39;;;;;;;3.93;3.00;;;17.50;99.90;;;;;;8411696;28;20192;-71
2022/10/16 07:56:40;;;;;;;3.20;2.90;;;17.40;99.90;;;;;;8393086;28;20327;-69
2022/10/16 08:00:41;;;;;;;3.63;3.33;;;17.40;99.90;;;;;;8408159;28;20184;-71
2022/10/16 08:04:42;;;;;;;3.53;3.10;;;17.60;99.90;;;;;;8394688;28;20196;-71
2022/10/16 08:08:43;;;;;;;4.03;3.07;;;17.80;99.90;;;;;;8409077;28;20215;-71
2022/10/16 08:12:43;;;;;;;3.77;2.80;;;17.90;99.90;;;;;;8392303;28;20196;-71
2022/10/16 08:16:44;;;;;;;3.47;3.13;;;18.10;99.90;;;;;;8409922;28;20327;-71
2022/10/16 08:20:45;;;;;;;3.20;2.90;;;18.10;99.90;;;;;;8393045;28;20215;-71
2022/10/16 08:24:45;;;;;;;3.40;3.10;;;18.00;99.90;;;;;;8406063;28;20240;-70
2022/10/16 08:28:50;;;;;;;3.20;2.77;;;18.10;99.90;;;;;;8391290;28;20184;-72
2022/10/16 08:32:51;;;;;;;3.00;2.73;;;18.10;99.90;;;;;;8407284;28;20801;-70
2022/10/16 08:36:55;;;;;;;2.97;2.67;;;18.40;99.90;;;;;;8391417;28;20207;-71
2022/10/16 08:41:29;;;;;;;3.33;3.03;;;19.10;99.90;;;;;;8410903;28;20184;-69
2022/10/16 08:45:55;;;;;;;2.77;2.57;;;19.40;1.00;;;;;;8392618;28;20184;-70
2022/10/16 08:49:59;;;;;;;4.70;2.80;;;19.50;1.00;;;;;;8398888;28;20196;-70
2022/10/16 08:54:06;;;;;;;3.37;2.63;;;19.40;99.90;;;;;;8393189;28;20252;-71
2022/10/16 08:58:30;;;;;;;2.80;2.33;;;19.40;99.90;;;;;;8387945;28;20245;-71
2022/10/16 09:02:34;;;;;;;3.53;2.80;;;19.40;99.90;;;;;;8381921;28;20204;-70
2022/10/16 09:07:11;;;;;;;2.80;2.47;;;19.50;99.90;;;;;;8390705;28;20238;-70
2022/10/16 09:11:44;;;;;;;2.40;2.20;;;19.70;99.90;;;;;;8389378;28;20189;-71
2022/10/16 09:15:58;;;;;;;4.43;2.43;;;19.80;1.00;;;;;;8386998;28;20211;-71
2022/10/16 09:20:29;;;;;;;2.37;2.17;;;19.80;1.00;;;;;;8391781;28;20208;-70
2022/10/16 09:24:30;;;;;;;3.83;2.13;;;19.70;1.00;;;;;;8409276;28;20185;-69
2022/10/16 09:28:31;;;;;;;2.50;2.20;;;19.60;1.00;;;;;;8388045;28;20204;-70
2022/10/16 09:32:33;;;;;;;2.30;2.10;;;19.50;1.00;;;;;;8406986;28;20195;-70
2022/10/16 09:36:41;;;;;;;2.77;2.57;;;19.60;1.00;;;;;;8387939;28;20207;-69
2022/10/16 09:40:43;;;;;;;4.17;2.50;;;19.60;1.00;;;;;;8406734;28;20366;-70
2022/10/16 09:44:48;;;;;;;2.20;2.10;;;19.80;1.00;;;;;;8406741;28;20185;-69
2022/10/16 09:48:51;;;;;;;2.53;2.33;;;20.10;99.90;;;;;;8409865;28;20191;-69
2022/10/16 09:53:26;;;;;;;3.10;2.30;;;20.50;99.90;;;;;;8396033;28;20184;-70
2022/10/16 09:57:27;;;;;;;2.70;2.50;;;20.80;79.60;;;;;;8367285;28;20369;-69
2022/10/16 10:01:39;;;;;;;4.90;2.40;;;20.90;33.30;;;;;;8412385;28;20196;-69
2022/10/16 10:05:40;;;;;;;4.83;3.03;;;21.20;16.50;;;;;;8413910;28;20257;-69
2022/10/16 10:09:44;;;;;;;3.60;2.73;;;21.50;1.00;;;;;;8394304;28;20192;-69
2022/10/16 10:13:45;;;;;;;4.47;2.60;;;21.50;1.00;;;;;;8408653;28;20193;-69
2022/10/16 10:17:48;;;;;;;3.53;2.53;;;21.30;28.60;;;;;;8410904;28;20202;-70
2022/10/16 10:21:52;;;;;;;2.90;2.60;;;21.20;53.00;;;;;;8395355;28;20208;-70
2022/10/16 10:26:04;;;;;;;2.90;2.50;;;21.30;99.90;;;;;;8411358;28;20176;-71
2022/10/16 10:30:14;;;;;;;2.20;2.00;;;21.60;99.90;;;;;;8391095;28;20216;-68
2022/10/16 10:34:44;;;;;;;2.43;2.23;;;21.60;94.50;;;;;;8412489;28;20193;-68
2022/10/16 10:39:15;;;;;;;2.50;2.00;;;21.80;54.30;;;;;;8395010;28;20303;-69
2022/10/16 10:43:55;;;;;;;2.20;2.00;;;22.10;1.00;;;;;;8410107;28;20180;-69
2022/10/16 10:48:15;;;;;;;2.00;1.80;;;22.10;1.00;;;;;;8408220;28;20235;-69
2022/10/16 10:52:34;;;;;;;1.70;1.60;;;22.00;1.00;;;;;;8406848;28;20238;-69
2022/10/16 10:56:44;;;;;;;2.20;1.30;;;22.00;1.00;;;;;;8410168;28;20239;-70
2022/10/16 11:00:50;;;;;;;1.33;1.23;;;22.00;1.00;;;;;;8407291;28;20177;-70
2022/10/16 11:05:11;;;;;;;1.40;1.30;;;22.10;1.00;;;;;;8411477;28;20185;-70
2022/10/16 11:09:24;;;;;;;2.13;1.40;;;21.90;1.00;;;;;;8410021;28;20188;-68
2022/10/16 11:13:31;;;;;;;1.83;1.20;;;21.90;1.00;;;;;;8411367;28;20184;-69
2022/10/16 11:17:44;;;;;;;1.20;1.10;;;22.00;1.00;;;;;;8393285;28;20275;-69
2022/10/16 11:22:13;;;;;;;1.17;1.07;;;22.10;1.00;;;;;;8392679;28;20192;-69
2022/10/16 11:26:23;;;;;;;2.27;0.97;;;22.20;1.00;;;;;;8392845;28;20184;-69
2022/10/16 11:30:26;;;;;;;1.37;0.90;;;22.00;1.00;;;;;;8396928;28;20185;-69
2022/10/16 11:34:44;;;;;;;1.83;1.20;;;21.70;99.90;;;;;;8410012;28;20184;-69
2022/10/16 11:38:59;;;;;;;1.40;1.10;;;21.60;1.00;;;;;;8409408;28;20213;-69
2022/10/16 11:43:24;;;;;;;1.23;1.13;;;21.70;1.00;;;;;;8393488;28;20173;-70
2022/10/16 11:47:37;;;;;;;1.93;1.50;;;21.80;1.00;;;;;;8408320;28;20184;-70
2022/10/16 11:51:54;;;;;;;2.10;1.40;;;21.70;1.00;;;;;;8409210;28;20189;-70
2022/10/16 11:55:55;;;;;;;4.10;1.50;;;21.70;1.00;;;;;;8409267;28;20212;-70
2022/10/16 12:00:05;;;;;;;1.50;1.40;;;21.60;1.00;;;;;;8384483;28;20204;-69
2022/10/16 12:04:12;;;;;;;1.50;1.40;;;21.60;1.00;;;;;;8408277;28;20192;-70
2022/10/16 12:08:15;;;;;;;1.97;1.23;;;21.50;1.00;;;;;;8391520;28;20290;-68
2022/10/16 12:12:39;;;;;;;2.30;1.20;;;21.50;1.00;;;;;;8411867;28;20187;-68
2022/10/16 12:16:56;;;;;;;1.83;1.20;;;21.60;1.00;;;;;;8392176;28;20215;-68
2022/10/16 12:21:04;;;;;;;1.40;1.17;;;21.60;1.00;;;;;;8410735;28;20188;-68
2022/10/16 12:25:05;;;;;;;1.27;1.17;;;21.70;1.00;;;;;;8412075;28;20180;-67
2022/10/16 12:29:14;;;;;;;1.33;1.17;;;21.90;1.00;;;;;;8388184;28;20188;-68
2022/10/16 12:33:25;;;;;;;1.33;1.20;;;22.10;1.00;;;;;;8391441;28;20253;-69
2022/10/16 12:37:28;;;;;;;1.30;1.20;;;22.10;1.00;;;;;;8393028;28;20208;-69
2022/10/16 12:41:35;;;;;;;1.70;1.20;;;22.20;1.00;;;;;;8387919;28;20271;-69
2022/10/16 12:45:36;;;;;;;3.03;1.13;;;22.50;99.90;;;;;;8411179;28;20188;-69
2022/10/16 12:49:39;;;;;;;2.50;1.30;;;22.60;99.90;;;;;;8408708;28;20184;-67
2022/10/16 12:53:40;;;;;;;1.27;0.97;;;22.40;99.90;;;;;;8409187;28;20253;-68
2022/10/16 12:57:41;;;;;;;1.10;1.00;;;22.40;99.90;;;;;;8405135;28;20223;-69
2022/10/16 13:02:16;;;;;;;1.20;0.93;;;22.40;99.90;;;;;;8408522;28;20198;-68
2022/10/16 13:06:45;;;;;;;1.50;1.23;;;22.40;99.90;;;;;;8392212;28;20290;-70
2022/10/16 13:11:01;;;;;;;3.73;1.77;;;22.50;99.90;;;;;;8409657;28;20585;-70
2022/10/16 13:15:05;;;;;;;2.53;1.20;;;22.60;99.90;;;;;;8392319;28;20181;-71
2022/10/16 13:19:21;;;;;;;2.00;1.10;;;22.40;99.90;;;;;;8408598;28;20449;-70
2022/10/16 13:23:28;;;;;;;1.17;1.03;;;22.10;99.90;;;;;;8395069;28;20255;-69
2022/10/16 13:27:32;;;;;;;2.10;1.07;;;21.80;1.00;;;;;;8395481;28;20206;-69
2022/10/16 13:31:34;;;;;;;1.37;1.00;;;21.90;1.00;;;;;;8396165;28;20185;-69
2022/10/16 13:35:36;;;;;;;1.10;0.93;;;22.00;1.00;;;;;;8396406;28;20304;-70
2022/10/16 13:39:37;;;;;;;2.33;1.30;;;22.10;1.00;;;;;;8413507;28;20176;-68
2022/10/16 13:43:39;;;;;;;1.67;0.97;;;21.90;99.90;;;;;;8393674;28;20187;-70
2022/10/16 13:47:40;;;;;;;1.43;1.33;;;21.90;1.00;;;;;;8413872;28;20180;-69
2022/10/16 13:51:53;;;;;;;1.90;1.30;;;21.80;1.00;;;;;;8395151;28;20192;-69
2022/10/16 13:55:54;;;;;;;2.37;1.30;;;21.90;1.00;;;;;;8397421;28;21388;-70
2022/10/16 13:59:55;;;;;;;3.27;1.40;;;22.00;1.00;;;;;;8412740;28;20204;-70
2022/10/16 14:04:07;;;;;;;2.10;1.60;;;21.90;99.90;;;;;;8397277;28;20378;-70
2022/10/16 14:08:11;;;;;;;1.43;1.30;;;21.70;1.00;;;;;;8413293;28;20352;-70
2022/10/16 14:12:13;;;;;;;3.77;1.20;;;21.60;1.00;;;;;;8393357;28;20197;-69
2022/10/16 14:16:28;;;;;;;1.53;1.40;;;21.60;1.00;;;;;;8395592;28;20299;-69
2022/10/16 14:20:34;;;;;;;2.60;1.53;;;21.70;1.00;;;;;;8396355;28;20184;-70
2022/10/16 14:24:35;;;;;;;4.03;1.37;;;21.70;1.00;;;;;;8396873;28;20184;-70
2022/10/16 14:28:40;;;;;;;2.03;1.30;;;21.70;1.00;;;;;;8412337;28;20184;-70
2022/10/16 14:32:42;;;;;;;1.83;1.30;;;21.80;1.00;;;;;;8393162;28;20189;-70
2022/10/16 14:36:43;;;;;;;1.43;1.17;;;21.80;1.00;;;;;;8412124;28;20211;-70
2022/10/16 14:40:48;;;;;;;1.60;1.20;;;21.90;1.00;;;;;;8409372;28;20186;-70
2022/10/16 14:44:52;;;;;;;1.60;1.30;;;22.00;1.00;;;;;;8396735;28;20233;-70
2022/10/16 14:49:00;;;;;;;1.40;1.30;;;21.90;1.00;;;;;;8396044;28;20188;-71
2022/10/16 14:53:01;;;;;;;2.60;1.30;;;21.80;1.00;;;;;;8410039;28;20188;-70
2022/10/16 14:57:02;;;;;;;3.30;1.23;;;21.70;1.00;;;;;;8409252;28;20262;-70
2022/10/16 15:01:06;;;;;;;3.17;1.43;;;21.70;1.00;;;;;;8409744;28;20184;-71
2022/10/16 15:05:28;;;;;;;2.03;1.20;;;21.60;1.00;;;;;;8394076;28;20233;-70
2022/10/16 15:09:28;;;;;;;1.30;1.17;;;21.50;1.00;;;;;;8382267;28;20257;-69
2022/10/16 15:13:29;;;;;;;2.63;1.20;;;21.40;1.00;;;;;;8391975;28;20766;-70
2022/10/16 15:17:31;;;;;;;2.10;1.90;;;21.30;1.00;;;;;;8412517;28;20235;-70
2022/10/16 15:21:33;;;;;;;2.10;1.50;;;21.10;1.00;;;;;;8394027;28;20244;-71
2022/10/16 15:25:39;;;;;;;1.83;1.50;;;21.00;1.00;;;;;;8410890;28;21465;-71
2022/10/16 15:29:40;;;;;;;1.50;1.30;;;20.80;11.90;;;;;;8392554;28;20469;-70
2022/10/16 15:33:41;;;;;;;1.80;1.60;;;20.70;89.50;;;;;;8410592;28;20188;-70
2022/10/16 15:37:41;;;;;;;1.40;1.30;;;20.50;99.90;;;;;;8388561;28;20216;-71
2022/10/16 15:41:43;;;;;;;2.33;1.63;;;20.30;99.90;;;;;;8394851;28;20211;-70
2022/10/16 15:45:44;;;;;;;1.70;1.40;;;20.10;99.90;;;;;;8409602;28;20273;-70
2022/10/16 15:49:45;;;;;;;2.17;1.53;;;19.90;99.90;;;;;;8392030;28;20196;-70
2022/10/16 15:53:46;;;;;;;1.57;1.40;;;19.70;99.90;;;;;;8393309;28;20256;-71
2022/10/16 15:57:47;;;;;;;1.20;1.10;;;19.60;1.00;;;;;;8406342;28;20213;-70
2022/10/16 16:01:48;;;;;;;1.50;1.40;;;19.40;1.00;;;;;;8391458;28;20196;-71
2022/10/16 16:05:49;;;;;;;2.67;1.40;;;19.20;17.20;;;;;;8391919;28;20187;-70
2022/10/16 16:09:49;;;;;;;1.37;1.27;;;19.00;99.90;;;;;;8392052;28;20271;-70
2022/10/16 16:13:50;;;;;;;2.00;1.70;;;18.80;99.90;;;;;;8390052;28;20224;-70
2022/10/16 16:17:51;;;;;;;1.93;1.50;;;18.70;99.90;;;;;;8391245;28;20291;-70
2022/10/16 16:21:52;;;;;;;3.53;2.00;;;18.40;1.00;;;;;;8391665;28;20177;-70
2022/10/16 16:26:07;;;;;;;1.83;1.70;;;18.20;99.90;;;;;;8408811;28;20184;-69
2022/10/16 16:30:11;;;;;;;3.13;1.60;;;17.90;1.00;;;;;;8405127;28;20211;-70
2022/10/16 16:34:13;;;;;;;2.30;1.73;;;17.70;99.90;;;;;;8374226;28;20192;-71
2022/10/16 16:38:15;;;;;;;1.73;1.63;;;17.50;1.00;;;;;;8391546;28;20218;-69
2022/10/16 16:42:16;;;;;;;3.27;1.93;;;17.40;1.00;;;;;;8408066;28;20185;-70
2022/10/16 16:46:17;;;;;;;3.37;2.00;;;17.40;1.00;;;;;;8391430;28;20243;-70
2022/10/16 16:50:21;;;;;;;2.73;2.20;;;17.40;99.90;;;;;;8391721;28;20203;-71
2022/10/16 16:54:22;;;;;;;2.73;2.10;;;17.40;99.90;;;;;;8391535;28;20292;-70
2022/10/16 16:58:23;;;;;;;3.20;2.20;;;17.40;99.90;;;;;;8388031;28;20219;-70
2022/10/16 17:02:24;;;;;;;3.00;2.07;;;17.40;99.90;;;;;;8415068;28;20195;-71
2022/10/16 17:06:31;;;;;;;3.03;2.30;;;17.50;1.00;;;;;;8414615;28;20184;-70
2022/10/16 17:10:32;;;;;;;3.43;2.60;;;17.40;99.90;;;;;;8397117;28;20227;-72
2022/10/16 17:14:34;;;;;;;2.37;2.07;;;17.40;99.90;;;;;;8397556;28;20184;-72
2022/10/16 17:18:36;;;;;;;3.97;2.20;;;17.30;99.90;;;;;;8397931;28;20219;-73
2022/10/16 17:22:39;;;;;;;2.67;2.37;;;17.30;99.90;;;;;;8397051;28;20177;-71
2022/10/16 17:26:43;;;;;;;1.93;1.77;;;17.30;99.90;;;;;;8391972;28;20201;-71
2022/10/16 17:30:45;;;;;;;2.73;2.50;;;17.20;99.90;;;;;;8393426;28;20199;-73
2022/10/16 17:34:46;;;;;;;4.47;3.33;;;17.20;1.00;;;;;;8415064;28;20598;-72
2022/10/16 17:38:48;;;;;;;3.40;2.93;;;17.10;99.90;;;;;;8412728;28;20208;-72
2022/10/16 17:42:49;;;;;;;3.73;2.90;;;16.90;99.90;;;;;;8399213;28;20182;-74
2022/10/16 17:46:52;;;;;;;2.57;2.37;;;16.80;99.90;;;;;;8395933;28;20184;-72
2022/10/16 17:50:53;;;;;;;2.93;2.50;;;16.50;99.90;;;;;;8401762;28;20180;-74
2022/10/16 17:54:57;;;;;;;2.33;2.13;;;16.30;99.90;;;;;;8416823;28;20220;-73
2022/10/16 17:58:59;;;;;;;2.37;2.17;;;16.20;99.90;;;;;;8395744;28;20212;-72
2022/10/16 18:03:02;;;;;;;2.57;2.37;;;16.00;99.90;;;;;;8415029;28;20193;-74
2022/10/16 18:07:03;;;;;;;2.27;2.07;;;15.90;99.90;;;;;;8397528;28;20193;-72
2022/10/16 18:11:04;;;;;;;2.23;2.03;;;15.80;99.90;;;;;;8397155;28;20266;-74
2022/10/16 18:15:08;;;;;;;2.73;2.13;;;15.70;99.90;;;;;;8410290;28;20257;-72
2022/10/16 18:19:10;;;;;;;2.40;2.03;;;15.70;99.90;;;;;;8410347;28;20208;-74
2022/10/16 18:23:13;;;;;;;3.20;2.57;;;15.70;99.90;;;;;;8413457;28;20368;-77
2022/10/16 18:27:14;;;;;;;2.93;2.67;;;15.60;99.90;;;;;;8411131;28;20319;-73
2022/10/16 18:31:17;;;;;;;4.67;4.20;;;15.60;99.90;;;;;;8410474;28;20483;-73
2022/10/16 18:35:18;;;;;;;3.80;3.30;;;15.50;99.90;;;;;;8394006;28;20181;-71
2022/10/16 18:39:22;;;;;;;4.13;3.67;;;15.50;99.90;;;;;;8392482;28;20266;-73
2022/10/16 18:43:24;;;;;;;4.07;3.67;;;15.50;99.90;;;;;;8415238;28;20226;-72
2022/10/16 18:47:27;;;;;;;4.17;3.77;;;15.50;99.90;;;;;;8395132;28;20219;-72
2022/10/16 18:51:33;;;;;;;4.60;3.30;;;15.40;99.90;;;;;;8413487;28;20265;-73
2022/10/16 18:55:36;;;;;;;3.40;3.00;;;15.30;99.90;;;;;;8393176;28;20272;-73
2022/10/16 18:59:38;;;;;;;3.60;3.30;;;15.30;99.90;;;;;;8391190;28;21060;-74
2022/10/16 19:03:40;;;;;;;5.23;4.40;;;15.30;99.90;;;;;;8411843;28;20242;-74
2022/10/16 19:07:45;;;;;;;7.23;5.77;;;15.20;99.90;;;;;;8412115;28;20197;-74
2022/10/16 19:11:46;;;;;;;6.60;5.47;;;15.10;99.90;;;;;;8414500;28;20207;-71
2022/10/16 19:15:47;;;;;;;5.93;4.87;;;15.00;99.90;;;;;;8379500;28;20212;-72
2022/10/16 19:19:51;;;;;;;4.60;3.63;;;14.80;99.90;;;;;;8392435;28;20185;-72
2022/10/16 19:23:57;;;;;;;3.73;3.20;;;14.70;99.90;;;;;;8392801;28;20195;-71
2022/10/16 19:28:00;;;;;;;2.80;2.60;;;14.60;99.90;;;;;;8376477;28;20226;-72
2022/10/16 19:32:01;;;;;;;4.07;3.23;;;14.50;99.90;;;;;;8410221;28;20212;-72
2022/10/16 19:36:17;;;;;;;5.30;3.43;;;14.40;99.90;;;;;;8411050;28;20213;-71
2022/10/16 19:40:18;;;;;;;5.37;4.10;;;14.30;99.90;;;;;;8410590;28;20551;-71
2022/10/16 19:44:19;;;;;;;3.93;2.90;;;14.20;99.90;;;;;;8393219;28;20450;-71
2022/10/16 19:48:21;;;;;;;1.97;1.77;;;14.00;99.90;;;;;;8410590;28;20184;-72
2022/10/16 19:52:22;;;;;;;2.87;2.57;;;13.90;99.90;;;;;;8411371;28;20234;-71
2022/10/16 19:56:26;;;;;;;3.13;2.27;;;13.80;99.90;;;;;;8411073;28;20302;-73
2022/10/16 20:00:27;;;;;;;3.10;2.77;;;13.70;99.90;;;;;;8410162;28;20315;-73
2022/10/16 20:04:28;;;;;;;4.63;3.10;;;13.60;99.90;;;;;;8395456;28;20196;-72
2022/10/16 20:08:30;;;;;;;4.13;3.63;;;13.50;99.90;;;;;;8391890;28;20201;-71
2022/10/16 20:12:33;;;;;;;4.73;3.50;;;13.50;99.90;;;;;;8394551;28;20204;-73
2022/10/16 20:16:34;;;;;;;4.50;3.67;;;13.40;99.90;;;;;;8392965;28;20521;-72
2022/10/16 20:20:44;;;;;;;5.70;4.40;;;13.40;99.90;;;;;;8393130;28;20185;-73
2022/10/16 20:24:45;;;;;;;5.23;4.37;;;13.30;99.90;;;;;;8392311;28;20192;-73
2022/10/16 20:28:46;;;;;;;4.50;4.10;;;13.20;99.90;;;;;;8410126;28;20192;-73
2022/10/16 20:32:46;;;;;;;4.80;3.77;;;13.20;99.90;;;;;;8410984;28;20203;-74
2022/10/16 20:36:49;;;;;;;4.77;4.27;;;13.10;99.90;;;;;;8409527;28;20212;-73
2022/10/16 20:40:50;;;;;;;5.47;4.37;;;13.10;99.90;;;;;;8409931;28;20180;-72
2022/10/16 20:44:51;;;;;;;3.87;3.57;;;13.00;99.90;;;;;;8410987;28;20417;-74
2022/10/16 20:48:53;;;;;;;4.27;3.33;;;13.00;99.90;;;;;;8392685;28;20192;-73
2022/10/16 20:52:55;;;;;;;3.70;3.00;;;12.90;99.90;;;;;;8391593;28;20188;-74
2022/10/16 20:56:56;;;;;;;3.83;3.53;;;12.80;99.90;;;;;;8409080;28;20208;-73
2022/10/16 21:01:07;;;;;;;3.87;3.50;;;12.80;99.90;;;;;;8391297;28;20333;-73
2022/10/16 21:05:08;;;;;;;6.93;5.13;;;12.70;99.90;;;;;;8408400;28;20272;-74
2022/10/16 21:09:09;;;;;;;5.87;4.70;;;12.60;99.90;;;;;;8391648;28;20188;-72
2022/10/16 21:13:10;;;;;;;6.77;6.07;;;12.60;99.90;;;;;;8393139;28;20223;-73
2022/10/16 21:17:11;;;;;;;6.13;5.40;;;12.70;99.90;;;;;;8390509;28;20215;-73